createdAt,value
2022-10-18T03:48:06.976Z,11.55
2022-10-18T03:51:09.988Z,13.82
2022-10-18T03:54:12.208Z,10.73
2022-10-18T03:57:14.854Z,12.35
2022-10-18T04:00:17.984Z,10.88
2022-10-18T04:03:21.849Z,12.37
2022-10-18T04:09:26.808Z,11.12
2022-10-18T04:12:29.253Z,11.93
2022-10-18T04:15:32.593Z,11.63
2022-10-18T04:18:34.862Z,11.50
2022-10-18T04:21:37.563Z,10.80
2022-10-18T04:24:39.867Z,11.05
2022-10-18T04:27:42.784Z,11.33
2022-10-18T04:30:53.220Z,11.32
2022-10-18T04:33:55.826Z,10.80
2022-10-18T04:36:58.123Z,12.30
2022-10-18T04:40:00.618Z,10.30
2022-10-18T04:43:03.099Z,11.00
2022-10-18T04:46:05.891Z,12.37
2022-10-18T04:49:08.393Z,11.03
2022-10-18T04:52:10.940Z,11.88
2022-10-18T04:55:13.326Z,12.10
2022-10-18T04:58:17.293Z,14.20
2022-10-18T05:01:19.693Z,13.18
2022-10-18T05:04:22.367Z,12.77
2022-10-18T05:07:24.633Z,15.30
2022-10-18T05:10:29.196Z,15.60
2022-10-18T05:13:31.628Z,15.00
2022-10-18T05:16:34.321Z,12.77
2022-10-18T05:19:36.715Z,14.30
2022-10-18T05:22:39.561Z,14.85
2022-10-18T05:25:43.023Z,14.32
2022-10-18T05:28:46.272Z,15.65
2022-10-18T05:31:49.874Z,12.90
2022-10-18T05:37:54.670Z,14.02
2022-10-18T05:40:58.106Z,14.70
2022-10-18T05:44:05.044Z,15.43
2022-10-18T05:47:07.657Z,12.27
2022-10-18T05:50:10.036Z,12.10
2022-10-18T05:53:31.848Z,12.70
2022-10-18T05:56:35.241Z,11.00
2022-10-18T05:59:37.786Z,13.17
2022-10-18T06:02:40.230Z,13.30
2022-10-18T06:05:42.893Z,12.63
2022-10-18T06:08:45.272Z,11.57
2022-10-18T06:11:47.898Z,15.17
2022-10-18T06:14:50.180Z,12.10
2022-10-18T06:17:52.765Z,13.93
2022-10-18T06:20:59.363Z,13.27
2022-10-18T06:24:01.957Z,12.35
2022-10-18T06:27:08.814Z,14.02
2022-10-18T06:30:11.684Z,14.15
2022-10-18T06:33:14.178Z,14.13
2022-10-18T06:36:24.216Z,15.05
2022-10-18T06:39:26.742Z,13.98
2022-10-18T06:42:29.307Z,13.50
2022-10-18T06:45:31.603Z,15.13
2022-10-18T06:48:36.073Z,15.57
2022-10-18T06:51:39.089Z,13.82
2022-10-18T06:54:41.610Z,12.55
2022-10-18T06:57:43.949Z,13.95
2022-10-18T07:00:47.517Z,13.52
2022-10-18T07:06:54.465Z,12.32
2022-10-18T07:09:56.774Z,13.68
2022-10-18T07:13:19.952Z,13.33
2022-10-18T07:16:21.641Z,13.80
2022-10-18T07:19:24.274Z,15.10
2022-10-18T07:22:30.163Z,12.90
2022-10-18T07:25:33.293Z,15.20
2022-10-18T07:28:35.745Z,14.20
2022-10-18T07:31:39.094Z,16.27
2022-10-18T07:34:41.400Z,15.00
2022-10-18T07:37:44.023Z,15.03
2022-10-18T07:40:46.597Z,13.63
2022-10-18T07:43:51.146Z,14.18
2022-10-18T07:46:53.674Z,16.67
2022-10-18T07:49:56.209Z,16.83
2022-10-18T07:52:58.579Z,14.38
2022-10-18T07:56:09.347Z,13.57
2022-10-18T07:59:12.388Z,13.25
2022-10-18T08:02:15.171Z,13.07
2022-10-18T08:05:19.561Z,13.93
2022-10-18T08:08:23.102Z,15.25
2022-10-18T08:11:26.134Z,13.80
2022-10-18T08:14:28.456Z,12.10
2022-10-18T08:17:31.316Z,12.43
2022-10-18T08:20:36.164Z,13.77
2022-10-18T08:23:39.694Z,13.43
2022-10-18T08:26:41.968Z,15.50
2022-10-18T08:29:44.611Z,17.27
2022-10-18T08:32:46.849Z,15.75
2022-10-18T08:36:00.906Z,14.53
2022-10-18T08:39:03.598Z,14.90
2022-10-18T08:42:17.377Z,12.80
2022-10-18T08:48:46.334Z,11.38
2022-10-18T08:51:50.768Z,11.12
2022-10-18T08:55:22.144Z,11.50
2022-10-18T08:58:30.781Z,10.18
2022-10-18T09:05:19.635Z,10.55
2022-10-18T09:08:54.249Z,10.27
2022-10-18T09:12:34.431Z,9.35
2022-10-18T09:15:59.530Z,9.50
2022-10-18T09:19:20.718Z,10.05
2022-10-18T09:22:53.135Z,8.02
2022-10-18T09:25:58.464Z,8.32
2022-10-18T09:29:35.374Z,9.13
2022-10-18T09:33:03.014Z,8.45
2022-10-18T09:36:13.981Z,8.80
2022-10-18T09:39:19.864Z,7.68
2022-10-18T09:42:31.507Z,8.30
2022-10-18T09:45:39.182Z,8.70
2022-10-18T09:49:05.837Z,8.63
2022-10-18T09:52:16.167Z,7.68
2022-10-18T09:58:40.109Z,7.40
2022-10-18T10:01:43.232Z,8.48
2022-10-18T10:04:45.843Z,7.20
2022-10-18T10:07:49.323Z,6.57
2022-10-18T10:10:52.292Z,6.72
2022-10-18T10:14:08.147Z,7.45
2022-10-18T10:17:32.266Z,7.15
2022-10-18T10:20:48.575Z,7.43
2022-10-18T10:23:54.743Z,7.25
2022-10-18T10:27:06.966Z,6.97
2022-10-18T10:30:24.272Z,5.35
2022-10-18T10:33:38.109Z,5.03
2022-10-18T10:36:53.033Z,5.25
2022-10-18T10:40:24.081Z,5.25
2022-10-18T10:43:38.871Z,7.32
2022-10-18T10:46:41.972Z,5.57
2022-10-18T10:49:47.610Z,5.93
2022-10-18T10:52:50.046Z,5.25
2022-10-18T10:55:54.736Z,5.60
2022-10-18T10:59:03.266Z,4.93
2022-10-18T11:02:18.150Z,6.07
2022-10-18T11:05:23.239Z,5.68
2022-10-18T11:08:38.956Z,4.47
2022-10-18T11:11:49.959Z,6.30
2022-10-18T11:15:09.938Z,5.53
2022-10-18T11:18:21.707Z,5.22
2022-10-18T11:21:29.625Z,5.45
2022-10-18T11:24:31.916Z,5.85
2022-10-18T11:27:43.470Z,5.15
2022-10-18T11:31:00.273Z,5.68
2022-10-18T11:34:32.738Z,6.03
2022-10-18T11:38:17.938Z,4.68
2022-10-18T11:41:57.671Z,4.93
2022-10-18T11:45:50.812Z,4.97
2022-10-18T11:49:11.774Z,5.72
2022-10-18T11:52:41.139Z,5.05
2022-10-18T11:56:05.883Z,4.43
2022-10-18T11:59:27.007Z,4.90
2022-10-18T12:03:04.114Z,4.55
2022-10-18T12:06:16.364Z,6.00
2022-10-18T12:09:31.280Z,4.97
2022-10-18T12:12:41.730Z,4.43
2022-10-18T12:15:45.249Z,5.15
2022-10-18T12:18:59.437Z,5.03
2022-10-18T12:22:22.406Z,4.87
2022-10-18T12:25:25.801Z,4.85
2022-10-18T12:29:01.184Z,4.62
2022-10-18T12:32:14.135Z,5.07
2022-10-18T12:35:19.227Z,5.05
2022-10-18T12:38:29.098Z,5.22
2022-10-18T12:41:33.608Z,5.30
2022-10-18T12:44:36.380Z,4.60
2022-10-18T12:47:39.165Z,4.57
2022-10-18T12:50:44.083Z,4.80
2022-10-18T12:53:49.403Z,4.45
2022-10-18T12:56:52.380Z,4.15
2022-10-18T12:59:55.077Z,4.93
2022-10-18T13:03:12.828Z,4.70
2022-10-18T13:06:15.115Z,4.78
2022-10-18T13:09:20.997Z,3.83
2022-10-18T13:12:23.212Z,4.93
2022-10-18T13:15:49.079Z,4.90
2022-10-18T13:19:10.285Z,4.68
2022-10-18T13:22:27.816Z,3.50
2022-10-18T13:25:51.966Z,4.60
2022-10-18T13:29:13.363Z,4.78
2022-10-18T13:32:45.181Z,4.80
2022-10-18T13:35:54.682Z,3.80
2022-10-18T13:39:01.987Z,4.78
2022-10-18T13:42:33.326Z,4.78
2022-10-18T13:45:41.740Z,4.55
2022-10-18T13:48:46.746Z,4.40
2022-10-18T13:52:19.984Z,4.47
2022-10-18T13:56:00.286Z,4.55
2022-10-18T13:59:24.064Z,3.55
2022-10-18T14:02:50.378Z,3.60
2022-10-18T14:06:11.869Z,4.43
2022-10-18T14:09:25.998Z,5.40
2022-10-18T14:12:44.303Z,4.70
2022-10-18T14:15:51.637Z,4.53
2022-10-18T14:19:02.612Z,4.37
2022-10-18T14:22:18.430Z,3.72
2022-10-18T14:25:27.877Z,4.57
2022-10-18T14:28:48.077Z,5.35
2022-10-18T14:31:54.775Z,3.80
2022-10-18T14:35:20.631Z,4.12
2022-10-18T14:38:22.958Z,3.85
2022-10-18T14:41:38.446Z,4.40
2022-10-18T14:44:41.035Z,4.30
2022-10-18T14:47:45.630Z,6.13
2022-10-18T14:51:00.321Z,4.22
2022-10-18T14:54:03.257Z,3.78
2022-10-18T14:57:07.020Z,3.83
2022-10-18T15:00:21.513Z,4.32
2022-10-18T15:03:26.156Z,3.97
2022-10-18T15:06:28.617Z,3.92
2022-10-18T15:09:34.279Z,5.03
2022-10-18T15:13:04.375Z,4.65
2022-10-18T15:16:02.434Z,4.97
2022-10-18T15:19:13.471Z,5.15
2022-10-18T15:22:33.358Z,4.90
2022-10-18T15:25:35.913Z,6.75
2022-10-18T15:28:52.481Z,6.50
2022-10-18T15:31:55.116Z,7.05
2022-10-18T15:35:26.121Z,6.85
2022-10-18T15:38:32.675Z,7.53
2022-10-18T15:41:48.846Z,6.25
2022-10-18T15:44:51.567Z,5.82
2022-10-18T15:47:58.344Z,7.00
2022-10-18T15:51:04.685Z,5.35
2022-10-18T15:54:19.430Z,5.68
2022-10-18T15:57:23.427Z,5.40
2022-10-18T16:00:27.804Z,6.43
